Bodega Marine Reserve, California Weather observations

Data are for 10 minute period ending at time listed.
 Day   Time   Solar   Ave.   Ave.  Ave.  Vector  Max.   Baro.   Total    
  of    of     Rad.   Air    Rel.  Wind   Wind   Wind  Press.  Precip.   
Year   Day            Temp.  Hum.  Speed  Dir.   Gust                    
2015   (PST)  Kw/m2    F      %     mph   deg.    mph    mb.     in.     
-------------------------------------------------------------------------
 183    0:00   0.00   53.9    94    7.7   311    12.6   1010.2    0.00 
 183    0:10   0.00   54.0    95    5.5   294     9.8   1010.2    0.00 
 183    0:20   0.00   54.0    95    5.4   302     9.1   1009.8    0.00 
 183    0:30   0.00   53.8    95    4.3   312     6.1   1010.2    0.00 
 183    0:40   0.00   53.7    95    3.5   306     5.6   1010.2    0.00 
 183    0:50   0.00   53.6    95    2.4   275     5.3   1010.2    0.00 
 183    1:00   0.00   53.7    95    1.6   296     2.9   1010.2    0.00 
 183    1:10   0.00   53.8    95    1.5   176     4.0   1010.5    0.00 
 183    1:20   0.00   54.0    95    5.8   145     8.6   1011.2    0.00 
 183    1:30   0.00   54.0    95    5.7   144     8.6   1011.5    0.00 
 183    1:40   0.00   54.1    95    6.2   142     9.9   1011.5    0.00 
 183    1:50   0.00   54.0    95    1.6    19     4.2   1011.2    0.00 
 183    2:00   0.00   53.9    95    3.6   337     6.5   1010.5    0.00 
 183    2:10   0.00   53.9    96    6.5   320     9.8   1010.2    0.00 
 183    2:20   0.00   54.2    96    4.1   262     7.7   1010.5    0.00 
 183    2:30   0.00   54.4    95    3.1   213     5.0   1010.8    0.00 
 183    2:40   0.00   54.3    96    2.1   193     3.5   1010.8    0.00 
 183    2:50   0.00   54.2    95    1.4   169     2.6   1010.8    0.00 
 183    3:00   0.00   54.2    95    2.2   226     3.7   1010.8    0.00 
 183    3:10   0.00   54.0    95    3.3   276     5.0   1010.5    0.00 
 183    3:20   0.00   53.9    96    1.3   192     2.1   1010.5    0.00 
 183    3:30   0.00   54.0    96    1.9    98     2.5   1010.8    0.00 
 183    3:40   0.00   54.2    96    2.8   140     5.1   1010.8    0.00 
 183    3:50   0.00   54.4    96    3.7   120     6.6   1011.2    0.00 
 183    4:00   0.00   54.5    96    2.8    98     5.8   1011.2    0.00 
 183    4:10   0.00   54.6    96    1.5   132     3.4   1010.8    0.00 
 183    4:20   0.00   54.8    96    2.7   166     4.2   1010.8    0.00 
 183    4:30   0.00   54.7    95    1.6   223     2.4   1010.5    0.00 
 183    4:40   0.00   54.7    95    1.8   284     4.1   1010.5    0.00 
 183    4:50   0.00   54.6    95    5.3   308     8.6   1010.2    0.00 
 183    5:00   0.00   54.6    96    3.2   204     6.1   1010.5    0.00 
 183    5:10   0.01   54.8    95    2.6   229     4.0   1010.8    0.00 
 183    5:20   0.02   54.8    96    2.5   241     4.6   1010.8    0.00 
 183    5:30   0.03   54.9    96    3.0   188     5.0   1011.2    0.00 
 183    5:40   0.04   55.0    96    3.7   189     5.6   1011.2    0.00 
 183    5:50   0.04   55.2    96    1.8   171     3.7   1011.2    0.00 
 183    6:00   0.04   55.3    95    3.9   177     7.2   1011.5    0.00 
 183    6:10   0.05   55.3    95    2.2   153     4.5   1011.5    0.00 
 183    6:20   0.06   55.4    95    4.3   144     6.2   1011.9    0.00 
 183    6:30   0.07   55.4    95    3.3   175     5.7   1011.5    0.00 
 183    6:40   0.07   55.6    95    2.6   245     4.5   1011.5    0.00 
 183    6:50   0.07   55.5    95    1.3   224     3.1   1011.9    0.00 
 183    7:00   0.07   55.7    95    2.6   249     3.9   1011.9    0.00 
 183    7:10   0.07   55.5    95    2.0   259     3.7   1012.2    0.00 
 183    7:20   0.07   55.5    95    1.5   219     3.6   1012.2    0.00 
 183    7:30   0.08   55.7    95    3.0   199     4.9   1012.2    0.00 
 183    7:40   0.11   55.9    95    1.5   202     3.1   1012.2    0.00 
 183    7:50   0.10   56.1    95    2.4   194     5.6   1012.2    0.00 
 183    8:00   0.12   56.0    95    4.1   158     6.9   1012.9    0.00 
 183    8:10   0.10   55.9    95    3.5   147     6.1   1012.9    0.00 
 183    8:20   0.10   56.0    95    2.7   161     6.1   1012.9    0.00 
 183    8:30   0.18   56.4    95    1.9   161     4.7   1012.5    0.00 
 183    8:40   0.29   56.9    95    2.9   163     5.9   1012.5    0.00 
 183    8:50   0.23   57.0    94    3.8   211     7.0   1012.9    0.00 
 183    9:00   0.10   56.9    94    2.7   212     5.4   1012.9    0.00 
 183    9:10   100.00  99999.0   99999  99999.0   99999   99999.0   99999.0   99999.00 
 183    9:20   100.00  99999.0   99999  99999.0   99999   99999.0   99999.0   99999.00 
 183    9:30   100.00  99999.0   99999  99999.0   99999   99999.0   99999.0   99999.00 
 183    9:40   100.00  99999.0   99999  99999.0   99999   99999.0   99999.0   99999.00 
 183    9:50   100.00  99999.0   99999  99999.0   99999   99999.0   99999.0   99999.00 
 183   10:00   100.00  99999.0   99999  99999.0   99999   99999.0   99999.0   99999.00 
 183   10:10   100.00  99999.0   99999  99999.0   99999   99999.0   99999.0   99999.00 
 183   10:20   100.00  99999.0   99999  99999.0   99999   99999.0   99999.0   99999.00 
 183   10:30   100.00  99999.0   99999  99999.0   99999   99999.0   99999.0   99999.00 
 183   10:40   100.00  99999.0   99999  99999.0   99999   99999.0   99999.0   99999.00 
 183   10:50   100.00  99999.0   99999  99999.0   99999   99999.0   99999.0   99999.00 
 183   11:00   100.00  99999.0   99999  99999.0   99999   99999.0   99999.0   99999.00 
 183   11:10   100.00  99999.0   99999  99999.0   99999   99999.0   99999.0   99999.00 
 183   11:20   100.00  99999.0   99999  99999.0   99999   99999.0   99999.0   99999.00 
 183   11:30   100.00  99999.0   99999  99999.0   99999   99999.0   99999.0   99999.00 
 183   11:40   100.00  99999.0   99999  99999.0   99999   99999.0   99999.0   99999.00 
 183   11:50   100.00  99999.0   99999  99999.0   99999   99999.0   99999.0   99999.00 
 183   12:00   100.00  99999.0   99999  99999.0   99999   99999.0   99999.0   99999.00 
 183   12:10   100.00  99999.0   99999  99999.0   99999   99999.0   99999.0   99999.00 
 183   12:20   100.00  99999.0   99999  99999.0   99999   99999.0   99999.0   99999.00 
 183   12:30   100.00  99999.0   99999  99999.0   99999   99999.0   99999.0   99999.00 
 183   12:40   100.00  99999.0   99999  99999.0   99999   99999.0   99999.0   99999.00 
 183   12:50   100.00  99999.0   99999  99999.0   99999   99999.0   99999.0   99999.00 
 183   13:00   100.00  99999.0   99999  99999.0   99999   99999.0   99999.0   99999.00 
 183   13:10   100.00  99999.0   99999  99999.0   99999   99999.0   99999.0   99999.00 
 183   13:20   100.00  99999.0   99999  99999.0   99999   99999.0   99999.0   99999.00 
 183   13:30   100.00  99999.0   99999  99999.0   99999   99999.0   99999.0   99999.00 
 183   13:40   100.00  99999.0   99999  99999.0   99999   99999.0   99999.0   99999.00 
 183   13:50   100.00  99999.0   99999  99999.0   99999   99999.0   99999.0   99999.00 
 183   14:00   100.00  99999.0   99999  99999.0   99999   99999.0   99999.0   99999.00 
 183   14:10   100.00  99999.0   99999  99999.0   99999   99999.0   99999.0   99999.00 
 183   14:20   100.00  99999.0   99999  99999.0   99999   99999.0   99999.0   99999.00 
 183   14:30   100.00  99999.0   99999  99999.0   99999   99999.0   99999.0   99999.00 
 183   14:40   100.00  99999.0   99999  99999.0   99999   99999.0   99999.0   99999.00 
 183   14:50   100.00  99999.0   99999  99999.0   99999   99999.0   99999.0   99999.00 
 183   15:00   100.00  99999.0   99999  99999.0   99999   99999.0   99999.0   99999.00 
 183   15:10   100.00  99999.0   99999  99999.0   99999   99999.0   99999.0   99999.00 
 183   15:20   0.23   60.8    83    2.8   200     5.7   1012.2    0.00 
 183   15:30   0.25   60.9    82    4.1   190     6.8   1012.2    0.00 
 183   15:40   0.34   61.1    82    4.6   197     7.5   1011.9    0.00 
 183   15:50   0.27   61.2    81    4.6   190     7.0   1011.9    0.00 
 183   16:00   0.26   60.4    83    4.5   216     7.1   1011.9    0.00 
 183   16:10   0.29   60.2    84    4.1   252     6.2   1011.9    0.00 
 183   16:20   0.39   60.6    84    3.4   260     5.8   1011.5    0.00 
 183   16:30   0.26   60.3    84    3.1   254     6.2   1011.5    0.00 
 183   16:40   0.29   60.9    83    3.0   258     6.3   1011.5    0.00 
 183   16:50   0.22   60.8    83    2.4   238     5.6   1011.5    0.00 
 183   17:00   0.19   60.2    84    2.9   240     5.7   1011.2    0.00 
 183   17:10   0.17   59.6    85    2.9   219     5.8   1011.2    0.00 
 183   17:20   0.20   59.5    86    3.7   242     6.5   1011.2    0.00 
 183   17:30   0.18   59.4    86    4.0   238     8.3   1011.2    0.00 
 183   17:40   0.12   58.8    87    4.4   238     6.8   1011.2    0.00 
 183   17:50   0.06   58.2    88    3.6   240     6.8   1011.5    0.00 
 183   18:00   0.06   57.9    89    3.5   208     5.6   1011.5    0.00 
 183   18:10   0.05   57.7    90    4.4   182     6.6   1011.5    0.00 
 183   18:20   0.06   57.5    91    3.9   194     5.6   1011.5    0.00 
 183   18:30   0.05   57.3    91    3.3   201     5.7   1011.5    0.00 
 183   18:40   0.04   57.1    91    3.8   196     5.6   1011.5    0.00 
 183   18:50   0.02   56.9    92    4.3   190     6.3   1011.9    0.00 
 183   19:00   0.01   56.7    92    3.8   184     6.5   1011.9    0.00 
 183   19:10   0.01   56.5    92    4.2   174     6.5   1011.9    0.00 
 183   19:20   0.01   56.2    92    5.3   194     7.7   1011.9    0.00 
 183   19:30   0.00   55.9    93    4.7   195     6.4   1011.9    0.00 
 183   19:40   0.00   55.7    93    4.6   213     6.1   1011.5    0.00 
 183   19:50   0.00   55.7    93    3.9   222     6.5   1011.9    0.00 
 183   20:00   0.00   55.8    93    3.2   227     5.3   1011.9    0.00 
 183   20:10   0.00   55.8    93    4.0   212     5.7   1011.9    0.00 
 183   20:20   0.00   55.9    94    3.7   187     6.0   1011.9    0.00 
 183   20:30   0.00   55.9    94    3.1   173     4.7   1012.2    0.00 
 183   20:40   0.00   56.0    94    2.9   162     4.2   1012.2    0.00 
 183   20:50   0.00   56.2    94    3.9   179     6.1   1012.2    0.00 
 183   21:00   0.00   56.2    94    3.1   194     5.1   1012.2    0.00 
 183   21:10   0.00   56.2    94    2.4   166     4.0   1012.2    0.00 
 183   21:20   0.00   56.3    94    1.9   175     3.4   1012.2    0.00 
 183   21:30   0.00   56.4    94    2.5   170     4.8   1012.2    0.00 
 183   21:40   0.00   56.5    94    3.3   145     4.8   1012.2    0.00 
 183   21:50   0.00   56.6    94    2.6   144     5.1   1012.5    0.00 
 183   22:00   0.00   56.6    94    3.2   138     5.2   1012.5    0.00 

Return to Bodega Marine Reserve graphs page.


Western Regional Climate Center,wrcc@dri.edu